createdAt,value
2019-01-21T00:00:58.265Z,97155.25
2019-01-21T00:03:27.369Z,97163.19
2019-01-21T00:05:56.476Z,97162.07
2019-01-21T00:08:25.560Z,97163.53
2019-01-21T00:10:54.674Z,97175.64
2019-01-21T00:13:23.808Z,97172.20
2019-01-21T00:15:52.960Z,97174.77
2019-01-21T00:18:22.036Z,97175.38
2019-01-21T00:20:51.139Z,97170.84
2019-01-21T00:23:20.264Z,97172.08
2019-01-21T00:25:49.337Z,97169.06
2019-01-21T00:28:20.068Z,97167.50
2019-01-21T00:30:49.215Z,97163.02
2019-01-21T00:33:18.300Z,97164.52
2019-01-21T00:35:47.389Z,97162.33
2019-01-21T00:38:16.497Z,97157.81
2019-01-21T00:40:45.585Z,97161.08
2019-01-21T00:43:14.701Z,97153.81
2019-01-21T00:45:43.792Z,97160.62
2019-01-21T00:48:12.932Z,97149.36
2019-01-21T00:50:42.033Z,97162.02
2019-01-21T00:53:11.136Z,97159.95
2019-01-21T00:55:40.261Z,97162.92
2019-01-21T00:58:09.360Z,97167.80
2019-01-21T01:00:38.458Z,97166.02
2019-01-21T01:03:07.869Z,97164.19
2019-01-21T01:05:36.959Z,97174.84
2019-01-21T01:08:06.236Z,97175.03
2019-01-21T01:10:35.328Z,97166.87
2019-01-21T01:13:04.444Z,97163.88
2019-01-21T01:15:33.528Z,97156.37
2019-01-21T01:18:02.645Z,97152.20
2019-01-21T01:20:31.731Z,97157.20
2019-01-21T01:23:00.858Z,97158.09
2019-01-21T01:25:29.948Z,97166.19
2019-01-21T01:27:59.122Z,97169.48
2019-01-21T01:30:28.164Z,97174.02
2019-01-21T01:32:57.264Z,97182.15
2019-01-21T01:35:26.377Z,97185.17
2019-01-21T01:37:55.468Z,97192.34
2019-01-21T01:40:24.573Z,97185.85
2019-01-21T01:42:53.660Z,97191.41
2019-01-21T01:45:24.709Z,97195.45
2019-01-21T01:48:03.773Z,97200.06
2019-01-21T01:50:32.997Z,97198.95
2019-01-21T01:53:02.109Z,97199.36
2019-01-21T01:55:31.980Z,97198.34
2019-01-21T01:58:02.591Z,97196.22
2019-01-21T02:00:31.797Z,97197.05
2019-01-21T02:03:00.988Z,97191.55
2019-01-21T02:05:30.093Z,97189.71
2019-01-21T02:07:59.382Z,97192.44
2019-01-21T02:10:28.770Z,97189.23
2019-01-21T02:12:57.861Z,97190.85
2019-01-21T02:15:26.965Z,97194.77
2019-01-21T02:17:56.043Z,97189.63
2019-01-21T02:20:25.152Z,97190.16
2019-01-21T02:23:01.693Z,97186.72
2019-01-21T02:25:50.452Z,97189.75
2019-01-21T02:28:49.708Z,97188.78
2019-01-21T02:31:48.329Z,97187.68
2019-01-21T02:35:04.692Z,97184.61
2019-01-21T02:38:14.710Z,97184.09
2019-01-21T02:41:24.626Z,97180.70
2019-01-21T02:44:24.357Z,97179.80
2019-01-21T02:47:18.697Z,97178.30
2019-01-21T02:50:06.037Z,97178.11
2019-01-21T02:52:50.236Z,97182.98
2019-01-21T02:56:00.106Z,97191.66
2019-01-21T02:58:40.917Z,97186.10
2019-01-21T03:01:37.588Z,97191.11
2019-01-21T03:04:34.643Z,97196.27
2019-01-21T03:07:23.339Z,97200.68
2019-01-21T03:10:13.992Z,97193.70
2019-01-21T03:13:01.279Z,97198.55
2019-01-21T03:16:00.313Z,97194.87
2019-01-21T03:19:37.590Z,97192.03
2019-01-21T03:22:31.747Z,97195.84
2019-01-21T03:25:33.228Z,97200.45
2019-01-21T03:28:39.067Z,97199.27
2019-01-21T03:31:43.698Z,97196.70
2019-01-21T03:34:34.572Z,97197.41
2019-01-21T03:37:43.358Z,97198.91
2019-01-21T03:40:40.891Z,97200.62
2019-01-21T03:44:04.606Z,97201.04
2019-01-21T03:47:11.244Z,97202.89
2019-01-21T03:50:03.715Z,97201.36
2019-01-21T03:52:44.526Z,97199.17
2019-01-21T03:55:15.890Z,97205.66
2019-01-21T03:58:37.022Z,97205.45
2019-01-21T04:01:19.144Z,97201.24
2019-01-21T04:04:10.196Z,97205.52
2019-01-21T04:07:04.637Z,97202.69
2019-01-21T04:10:11.909Z,97203.91
2019-01-21T04:13:01.794Z,97203.78
2019-01-21T04:16:16.360Z,97208.39
2019-01-21T04:19:30.079Z,97208.98
2019-01-21T04:22:36.563Z,97211.27
2019-01-21T04:25:32.084Z,97209.03
2019-01-21T04:28:22.303Z,97210.73
2019-01-21T04:31:22.931Z,97209.20
2019-01-21T04:34:05.803Z,97215.81
2019-01-21T04:37:27.817Z,97209.55
2019-01-21T04:40:14.162Z,97218.90
2019-01-21T04:43:27.173Z,97211.98
2019-01-21T04:46:29.796Z,97216.95
2019-01-21T04:49:09.351Z,97219.26
2019-01-21T04:52:06.046Z,97233.11
2019-01-21T04:55:10.177Z,97237.71
2019-01-21T04:58:02.049Z,97238.55
2019-01-21T05:01:03.534Z,97237.36
2019-01-21T05:04:12.133Z,97228.40
2019-01-21T05:07:25.300Z,97230.80
2019-01-21T05:10:21.977Z,97228.63
2019-01-21T05:13:27.191Z,97226.30
2019-01-21T05:16:41.220Z,97225.73
2019-01-21T05:19:41.042Z,97219.14
2019-01-21T05:25:07.998Z,97228.45
2019-01-21T05:28:33.342Z,97232.16
2019-01-21T05:31:35.455Z,97225.73
2019-01-21T05:34:33.087Z,97222.08
2019-01-21T05:37:35.481Z,97228.34
2019-01-21T05:40:41.126Z,97231.70
2019-01-21T05:43:46.957Z,97227.58
2019-01-21T05:46:45.061Z,97237.75
2019-01-21T05:50:04.070Z,97236.64
2019-01-21T05:53:15.768Z,97238.31
2019-01-21T05:56:40.938Z,97235.61
2019-01-21T06:00:01.821Z,97237.53
2019-01-21T06:03:09.545Z,97236.13
2019-01-21T06:06:24.929Z,97228.30
2019-01-21T06:09:29.690Z,97232.89
2019-01-21T06:12:05.566Z,97229.04
2019-01-21T06:15:18.666Z,97230.61
2019-01-21T06:18:08.877Z,97236.53
2019-01-21T06:21:13.468Z,97233.39
2019-01-21T06:24:30.136Z,97232.33
2019-01-21T06:27:39.222Z,97234.60
2019-01-21T06:31:07.092Z,97236.51
2019-01-21T06:34:04.481Z,97238.69
2019-01-21T06:37:06.972Z,97233.32
2019-01-21T06:40:27.543Z,97238.33
2019-01-21T06:43:22.033Z,97237.58
2019-01-21T06:46:50.296Z,97238.05
2019-01-21T06:50:02.571Z,97235.45
2019-01-21T06:52:59.119Z,97246.79
2019-01-21T06:56:10.895Z,97251.05
2019-01-21T06:59:35.800Z,97242.90
2019-01-21T07:02:44.831Z,97245.41
2019-01-21T07:05:54.856Z,97248.27
2019-01-21T07:08:43.293Z,97256.30
2019-01-21T07:11:40.870Z,97250.91
2019-01-21T07:14:50.129Z,97250.21
2019-01-21T07:18:10.765Z,97257.31
2019-01-21T07:21:27.168Z,97253.04
2019-01-21T07:24:21.904Z,97251.20
2019-01-21T07:27:35.069Z,97261.11
2019-01-21T07:30:45.477Z,97265.48
2019-01-21T07:33:42.827Z,97275.09
2019-01-21T07:36:31.641Z,97272.12
2019-01-21T07:39:59.516Z,97278.56
2019-01-21T07:42:58.547Z,97268.98
2019-01-21T07:46:09.663Z,97280.27
2019-01-21T07:49:26.783Z,97276.95
2019-01-21T07:52:33.129Z,97278.56
2019-01-21T07:55:10.631Z,97271.52
2019-01-21T07:58:26.576Z,97267.34
2019-01-21T08:01:21.438Z,97270.53
2019-01-21T08:04:32.769Z,97274.13
2019-01-21T08:07:29.222Z,97267.36
2019-01-21T08:10:36.841Z,97279.38
2019-01-21T08:13:41.465Z,97281.95
2019-01-21T08:17:15.507Z,97286.80
2019-01-21T08:20:17.884Z,97287.39
2019-01-21T08:23:30.435Z,97288.03
2019-01-21T08:26:23.368Z,97280.17
2019-01-21T08:29:26.074Z,97272.95
2019-01-21T08:32:02.536Z,97278.45
2019-01-21T08:35:01.092Z,97281.81
2019-01-21T08:38:10.484Z,97276.38
2019-01-21T08:41:31.601Z,97265.94
2019-01-21T08:44:39.852Z,97267.66
2019-01-21T08:47:25.326Z,97259.95
2019-01-21T08:50:19.969Z,97253.27
2019-01-21T08:53:28.511Z,97259.34
2019-01-21T08:56:44.403Z,97270.26
2019-01-21T08:59:54.585Z,97271.98
2019-01-21T09:03:03.108Z,97271.80
2019-01-21T09:06:25.389Z,97280.41
2019-01-21T09:09:21.102Z,97280.47
2019-01-21T09:12:16.852Z,97270.85
2019-01-21T09:15:18.998Z,97256.67
2019-01-21T09:18:04.864Z,97251.22
2019-01-21T09:21:08.017Z,97256.91
2019-01-21T09:23:58.732Z,97247.42
2019-01-21T09:26:50.595Z,97249.34
2019-01-21T09:30:01.965Z,97247.55
2019-01-21T09:33:09.141Z,97245.83
2019-01-21T09:36:03.781Z,97258.43
2019-01-21T09:39:27.837Z,97253.35
2019-01-21T09:42:20.692Z,97251.83
2019-01-21T09:45:26.249Z,97241.97
2019-01-21T09:47:53.725Z,97236.69
2019-01-21T09:50:22.850Z,97233.77
2019-01-21T09:52:52.145Z,97239.08
2019-01-21T09:55:23.237Z,97249.52
2019-01-21T09:58:03.482Z,97238.78
2019-01-21T10:00:32.701Z,97240.86
2019-01-21T10:03:03.613Z,97253.36
2019-01-21T10:05:33.852Z,97253.84
2019-01-21T10:08:29.916Z,97254.95
2019-01-21T10:11:38.649Z,97255.46
2019-01-21T10:14:54.868Z,97256.02
2019-01-21T10:17:46.973Z,97260.33
2019-01-21T10:20:27.898Z,97251.93
2019-01-21T10:23:52.981Z,97243.38
2019-01-21T10:26:51.864Z,97243.66
2019-01-21T10:29:46.900Z,97254.19
2019-01-21T10:32:55.784Z,97249.16
2019-01-21T10:36:03.895Z,97252.97
2019-01-21T10:39:38.150Z,97258.18
2019-01-21T10:42:32.193Z,97266.95
2019-01-21T10:45:36.704Z,97263.28
2019-01-21T10:48:24.424Z,97249.95
2019-01-21T10:51:25.707Z,97253.30
2019-01-21T10:54:28.190Z,97253.35
2019-01-21T10:57:41.306Z,97252.06
2019-01-21T11:00:55.865Z,97249.54
2019-01-21T11:03:41.765Z,97254.17
2019-01-21T11:06:49.047Z,97248.66
2019-01-21T11:09:40.022Z,97248.95
2019-01-21T11:12:56.300Z,97241.19
2019-01-21T11:15:59.573Z,97249.78
2019-01-21T11:19:04.380Z,97237.77
2019-01-21T11:22:02.822Z,97234.33
2019-01-21T11:24:57.917Z,97233.32
2019-01-21T11:28:12.808Z,97219.09
2019-01-21T11:31:11.837Z,97232.07
2019-01-21T11:34:24.832Z,97230.51
2019-01-21T11:37:33.721Z,97215.09
2019-01-21T11:40:50.126Z,97205.81
2019-01-21T11:43:49.930Z,97197.91
2019-01-21T11:46:50.753Z,97191.09
2019-01-21T11:49:53.635Z,97184.67
2019-01-21T11:52:52.012Z,97187.76
2019-01-21T11:55:50.193Z,97185.56
2019-01-21T11:58:38.058Z,97186.33
2019-01-21T12:01:17.032Z,97176.69
2019-01-21T12:03:59.138Z,97182.67
2019-01-21T12:06:36.908Z,97181.26
2019-01-21T12:09:45.207Z,97189.27
2019-01-21T12:12:55.239Z,97173.42
2019-01-21T12:16:09.976Z,97165.74
2019-01-21T12:19:07.960Z,97165.67
2019-01-21T12:22:16.223Z,97167.84
2019-01-21T12:24:54.425Z,97169.68
2019-01-21T12:27:59.904Z,97164.69
2019-01-21T12:30:55.754Z,97169.30
2019-01-21T12:33:51.768Z,97167.47
2019-01-21T12:36:41.463Z,97159.22
2019-01-21T12:39:47.917Z,97151.20
2019-01-21T12:42:50.607Z,97150.28
2019-01-21T12:46:06.013Z,97149.31
2019-01-21T12:49:21.880Z,97126.09
2019-01-21T12:52:33.808Z,97129.08
2019-01-21T12:55:40.454Z,97121.53
2019-01-21T12:58:43.360Z,97121.15
2019-01-21T13:02:17.180Z,97110.05
2019-01-21T13:05:12.683Z,97116.58
2019-01-21T13:07:55.267Z,97085.53
2019-01-21T13:10:49.906Z,97093.24
2019-01-21T13:14:02.064Z,97094.85
2019-01-21T13:16:48.532Z,97091.00
2019-01-21T13:20:00.664Z,97099.72
2019-01-21T13:23:01.249Z,97088.83
2019-01-21T13:26:05.864Z,97081.34
2019-01-21T13:29:10.764Z,97089.03
2019-01-21T13:32:26.334Z,97083.52
2019-01-21T13:35:31.049Z,97084.80
2019-01-21T13:38:26.717Z,97076.06
2019-01-21T13:41:51.013Z,97081.63
2019-01-21T13:44:51.707Z,97080.75
2019-01-21T13:47:53.573Z,97080.33
2019-01-21T13:50:58.633Z,97074.68
2019-01-21T13:54:02.762Z,97065.69
2019-01-21T13:57:12.907Z,97071.41
2019-01-21T14:00:21.040Z,97057.95
2019-01-21T14:03:09.155Z,97060.13
2019-01-21T14:06:22.684Z,97044.98
2019-01-21T14:09:35.613Z,97058.69
2019-01-21T14:12:34.786Z,97060.60
2019-01-21T14:15:41.616Z,97067.69
2019-01-21T14:18:56.252Z,97059.50
2019-01-21T14:22:06.584Z,97057.16
2019-01-21T14:25:23.008Z,97056.65
2019-01-21T14:28:28.608Z,97059.27
2019-01-21T14:31:21.193Z,97063.83
2019-01-21T14:34:39.501Z,97054.03
2019-01-21T14:37:45.378Z,97054.03
2019-01-21T14:40:26.536Z,97048.22
2019-01-21T14:43:48.821Z,97049.77
2019-01-21T14:46:38.733Z,97042.38
2019-01-21T14:49:42.036Z,97028.36
2019-01-21T14:52:47.015Z,97033.08
2019-01-21T14:56:18.178Z,97028.56
2019-01-21T14:59:18.455Z,97026.34
2019-01-21T15:02:01.898Z,97023.23
2019-01-21T15:05:22.751Z,97033.88
2019-01-21T15:08:31.478Z,97042.41
2019-01-21T15:11:27.984Z,97036.66
2019-01-21T15:14:19.725Z,97045.50
2019-01-21T15:17:02.241Z,97046.66
2019-01-21T15:20:06.669Z,97053.34
2019-01-21T15:23:00.669Z,97044.30
2019-01-21T15:26:08.466Z,97052.89
2019-01-21T15:29:02.153Z,97060.95
2019-01-21T15:32:02.727Z,97067.97
2019-01-21T15:35:33.968Z,97068.11
2019-01-21T15:38:33.497Z,97063.59
2019-01-21T15:41:31.501Z,97070.91
2019-01-21T15:44:24.704Z,97071.94
2019-01-21T15:47:35.975Z,97077.27
2019-01-21T15:50:46.051Z,97069.52
2019-01-21T15:53:40.136Z,97070.16
2019-01-21T15:56:40.497Z,97076.00
2019-01-21T15:59:39.241Z,97081.31
2019-01-21T16:02:38.644Z,97082.13
2019-01-21T16:05:19.528Z,97081.95
2019-01-21T16:07:55.912Z,97090.35
2019-01-21T16:10:50.836Z,97080.95
2019-01-21T16:13:45.664Z,97081.09
2019-01-21T16:16:33.489Z,97082.37
2019-01-21T16:19:12.280Z,97086.55
2019-01-21T16:22:12.992Z,97090.42
2019-01-21T16:24:56.008Z,97085.99
2019-01-21T16:27:54.076Z,97085.88
2019-01-21T16:30:34.042Z,97090.77
2019-01-21T16:33:43.392Z,97089.13
2019-01-21T16:36:24.066Z,97081.28
2019-01-21T16:39:03.180Z,97076.91
2019-01-21T16:41:46.655Z,97082.66
2019-01-21T16:44:15.744Z,97077.25
2019-01-21T16:46:44.849Z,97078.53
2019-01-21T16:49:13.949Z,97074.28
2019-01-21T16:51:43.086Z,97074.09
2019-01-21T16:54:12.847Z,97069.05
2019-01-21T16:56:41.973Z,97074.40
2019-01-21T16:59:11.058Z,97067.91
2019-01-21T17:01:40.212Z,97070.17
2019-01-21T17:04:09.248Z,97072.07
2019-01-21T17:06:39.528Z,97066.23
2019-01-21T17:09:11.013Z,97063.77
2019-01-21T17:11:40.121Z,97062.17
2019-01-21T17:14:11.421Z,97064.70
2019-01-21T17:16:40.532Z,97066.04
2019-01-21T17:19:09.692Z,97060.13
2019-01-21T17:21:39.035Z,97057.84
2019-01-21T17:24:08.131Z,97054.52
2019-01-21T17:26:37.363Z,97049.97
2019-01-21T17:29:06.455Z,97051.23
2019-01-21T17:31:35.563Z,97045.71
2019-01-21T17:34:05.162Z,97044.95
2019-01-21T17:36:34.264Z,97038.75
2019-01-21T17:39:04.201Z,97038.73
2019-01-21T17:41:33.295Z,97044.43
2019-01-21T17:44:02.416Z,97043.69
2019-01-21T17:46:31.532Z,97046.16
2019-01-21T17:49:00.621Z,97047.00
2019-01-21T17:51:33.796Z,97048.80
2019-01-21T17:54:00.682Z,97056.95
2019-01-21T17:56:29.765Z,97059.37
2019-01-21T17:58:58.877Z,97063.39
2019-01-21T18:01:27.964Z,97062.04
2019-01-21T18:03:57.082Z,97064.45
2019-01-21T18:06:26.169Z,97073.20
2019-01-21T18:08:55.289Z,97072.00
2019-01-21T18:11:24.405Z,97077.23
2019-01-21T18:13:53.505Z,97080.89
2019-01-21T18:16:22.599Z,97077.59
2019-01-21T18:18:51.708Z,97075.45
2019-01-21T18:21:20.797Z,97075.67
2019-01-21T18:23:49.922Z,97069.86
2019-01-21T18:26:19.025Z,97069.17
2019-01-21T18:28:48.129Z,97065.17
2019-01-21T18:31:17.230Z,97066.22
2019-01-21T18:33:46.346Z,97073.44
2019-01-21T18:36:15.543Z,97068.06
2019-01-21T18:38:44.734Z,97061.88
2019-01-21T18:41:13.837Z,97059.17
2019-01-21T18:43:43.065Z,97054.62
2019-01-21T18:46:12.171Z,97055.43
2019-01-21T18:48:41.281Z,97051.83
2019-01-21T18:51:10.404Z,97049.39
2019-01-21T18:53:39.521Z,97048.84
2019-01-21T18:56:08.615Z,97040.33
2019-01-21T18:58:37.740Z,97041.32
2019-01-21T19:01:06.829Z,97039.64
2019-01-21T19:03:35.935Z,97043.72
2019-01-21T19:06:05.126Z,97047.81
2019-01-21T19:08:34.237Z,97050.38
2019-01-21T19:11:03.338Z,97044.96
2019-01-21T19:13:32.420Z,97041.02
2019-01-21T19:16:01.534Z,97047.84
2019-01-21T19:18:30.624Z,97048.32
2019-01-21T19:20:59.733Z,97043.66
2019-01-21T19:23:28.837Z,97038.97
2019-01-21T19:25:57.961Z,97030.08
2019-01-21T19:28:27.048Z,97030.80
2019-01-21T19:30:56.177Z,97028.42
2019-01-21T19:33:25.267Z,97023.70
2019-01-21T19:35:54.376Z,97031.03
2019-01-21T19:38:23.461Z,97030.38
2019-01-21T19:40:52.568Z,97033.94
2019-01-21T19:43:21.653Z,97032.30
2019-01-21T19:45:50.759Z,97026.50
2019-01-21T19:48:19.848Z,97029.30
2019-01-21T19:50:48.993Z,97026.80
2019-01-21T19:53:18.078Z,97024.02
2019-01-21T19:55:47.195Z,97024.84
2019-01-21T19:58:17.183Z,97022.88
2019-01-21T20:00:46.310Z,97016.68
2019-01-21T20:03:15.413Z,97019.06
2019-01-21T20:05:44.529Z,97013.20
2019-01-21T20:08:13.618Z,97010.77
2019-01-21T20:10:42.725Z,97006.00
2019-01-21T20:13:11.816Z,97004.56
2019-01-21T20:15:40.926Z,96996.41
2019-01-21T20:18:10.008Z,96992.80
2019-01-21T20:20:40.782Z,96990.80
2019-01-21T20:23:09.922Z,96983.52
2019-01-21T20:25:39.032Z,96985.16
2019-01-21T20:28:08.155Z,96986.42
2019-01-21T20:30:37.272Z,96980.77
2019-01-21T20:33:06.468Z,96976.86
2019-01-21T20:35:35.585Z,96977.34
2019-01-21T20:38:04.777Z,96977.91
2019-01-21T20:40:33.886Z,96971.83
2019-01-21T20:43:02.980Z,96971.35
2019-01-21T20:45:32.089Z,96968.44
2019-01-21T20:48:01.177Z,96969.39
2019-01-21T20:50:31.037Z,96965.75
2019-01-21T20:53:00.136Z,96965.80
2019-01-21T20:55:29.254Z,96961.23
2019-01-21T20:57:58.338Z,96961.32
2019-01-21T21:00:28.746Z,96961.63
2019-01-21T21:02:58.424Z,96955.62
2019-01-21T21:05:27.544Z,96955.84
2019-01-21T21:07:56.658Z,96958.72
2019-01-21T21:10:25.793Z,96956.80
2019-01-21T21:12:54.895Z,96960.11
2019-01-21T21:15:26.373Z,96949.64
2019-01-21T21:17:55.492Z,96948.77
2019-01-21T21:20:24.605Z,96952.16
2019-01-21T21:22:53.692Z,96947.91
2019-01-21T21:25:22.993Z,96949.25
2019-01-21T21:27:52.101Z,96945.27
2019-01-21T21:30:23.524Z,96951.95
2019-01-21T21:32:52.679Z,96949.83
2019-01-21T21:35:22.037Z,96940.54
2019-01-21T21:37:51.146Z,96943.18
2019-01-21T21:40:20.699Z,96943.45
2019-01-21T21:42:49.804Z,96936.89
2019-01-21T21:45:19.415Z,96938.58
2019-01-21T21:47:48.561Z,96942.78
2019-01-21T21:50:20.129Z,96931.11
2019-01-21T21:52:49.268Z,96934.80
2019-01-21T21:55:18.357Z,96942.17
2019-01-21T21:57:47.478Z,96943.39
2019-01-21T22:00:19.177Z,96942.35
2019-01-21T22:02:48.288Z,96944.73
2019-01-21T22:05:17.681Z,96944.13
2019-01-21T22:07:46.790Z,96948.68
2019-01-21T22:10:19.779Z,96946.77
2019-01-21T22:12:48.181Z,96952.03
2019-01-21T22:15:18.889Z,96944.70
2019-01-21T22:17:48.006Z,96953.75
2019-01-21T22:20:18.700Z,96943.16
2019-01-21T22:22:47.821Z,96942.13
2019-01-21T22:25:17.185Z,96938.06
2019-01-21T22:27:46.296Z,96939.92
2019-01-21T22:30:17.770Z,96930.89
2019-01-21T22:32:46.891Z,96928.19
2019-01-21T22:35:15.999Z,96925.82
2019-01-21T22:37:45.390Z,96922.95
2019-01-21T22:40:16.356Z,96928.19
2019-01-21T22:42:45.484Z,96925.90
2019-01-21T22:45:15.509Z,96922.71
2019-01-21T22:47:44.654Z,96912.91
2019-01-21T22:50:14.346Z,96915.70
2019-01-21T22:52:43.481Z,96914.77
2019-01-21T22:55:13.651Z,96919.02
2019-01-21T22:57:42.764Z,96914.21
2019-01-21T23:00:53.097Z,96914.10
2019-01-21T23:03:22.353Z,96906.14
2019-01-21T23:05:51.437Z,96903.88
2019-01-21T23:08:20.918Z,96897.52
2019-01-21T23:10:50.001Z,96895.12
2019-01-21T23:13:19.109Z,96895.88
2019-01-21T23:15:48.201Z,96897.49
2019-01-21T23:18:17.307Z,96898.39
2019-01-21T23:20:46.387Z,96892.45
2019-01-21T23:23:15.528Z,96888.12
2019-01-21T23:25:44.622Z,96882.80
2019-01-21T23:28:13.726Z,96880.34
2019-01-21T23:30:42.817Z,96880.64
2019-01-21T23:33:11.920Z,96876.47
2019-01-21T23:35:41.000Z,96875.09
2019-01-21T23:38:10.113Z,96864.39
2019-01-21T23:40:39.200Z,96859.03
2019-01-21T23:43:08.311Z,96859.75
2019-01-21T23:45:37.399Z,96857.09
2019-01-21T23:48:06.680Z,96845.41
2019-01-21T23:50:35.779Z,96838.22
2019-01-21T23:53:05.301Z,96839.42
2019-01-21T23:55:34.383Z,96833.09
2019-01-21T23:58:03.484Z,96832.33
